sensor_id;sensor_type;location;lat;lon;timestamp;pressure;altitude;pressure_sealevel;temperature;humidity
65880;BME280;52661;51.364;6.054;2023-05-24T00:01:40;102037.06;;;10.94;100.00
65880;BME280;52661;51.364;6.054;2023-05-24T00:04:07;102035.00;;;10.87;100.00
65880;BME280;52661;51.364;6.054;2023-05-24T00:06:32;102035.56;;;10.77;100.00
65880;BME280;52661;51.364;6.054;2023-05-24T00:09:01;102042.63;;;10.62;100.00
65880;BME280;52661;51.364;6.054;2023-05-24T00:11:27;102040.00;;;10.66;100.00
65880;BME280;52661;51.364;6.054;2023-05-24T00:13:52;102035.56;;;10.58;100.00
65880;BME280;52661;51.364;6.054;2023-05-24T00:16:18;102031.47;;;10.48;100.00
65880;BME280;52661;51.364;6.054;2023-05-24T00:18:43;102033.09;;;10.53;100.00
65880;BME280;52661;51.364;6.054;2023-05-24T00:21:11;102032.13;;;10.42;100.00
65880;BME280;52661;51.364;6.054;2023-05-24T00:23:37;102031.00;;;10.62;100.00
65880;BME280;52661;51.364;6.054;2023-05-24T00:26:04;102025.13;;;10.60;100.00
65880;BME280;52661;51.364;6.054;2023-05-24T00:28:29;102021.19;;;10.57;100.00
65880;BME280;52661;51.364;6.054;2023-05-24T00:30:56;102023.72;;;10.66;100.00
65880;BME280;52661;51.364;6.054;2023-05-24T00:33:21;102027.25;;;10.51;100.00
65880;BME280;52661;51.364;6.054;2023-05-24T00:35:48;102019.72;;;10.60;100.00
65880;BME280;52661;51.364;6.054;2023-05-24T00:38:13;102011.97;;;10.62;100.00
65880;BME280;52661;51.364;6.054;2023-05-24T00:40:38;102018.84;;;10.56;100.00
65880;BME280;52661;51.364;6.054;2023-05-24T00:43:04;102010.63;;;10.71;100.00
65880;BME280;52661;51.364;6.054;2023-05-24T00:45:29;102013.63;;;10.66;100.00
65880;BME280;52661;51.364;6.054;2023-05-24T00:47:55;102009.63;;;10.60;100.00
65880;BME280;52661;51.364;6.054;2023-05-24T00:50:20;102008.19;;;10.66;100.00
65880;BME280;52661;51.364;6.054;2023-05-24T00:52:46;102008.41;;;10.58;100.00
65880;BME280;52661;51.364;6.054;2023-05-24T00:55:12;102016.03;;;10.71;100.00
65880;BME280;52661;51.364;6.054;2023-05-24T00:57:37;102016.28;;;10.63;100.00
65880;BME280;52661;51.364;6.054;2023-05-24T01:00:04;102017.06;;;10.63;100.00
65880;BME280;52661;51.364;6.054;2023-05-24T01:02:30;102009.69;;;10.64;100.00
65880;BME280;52661;51.364;6.054;2023-05-24T01:04:56;102004.34;;;10.48;100.00
65880;BME280;52661;51.364;6.054;2023-05-24T01:12:58;102002.25;;;10.61;100.00
65880;BME280;52661;51.364;6.054;2023-05-24T01:15:48;102005.03;;;10.64;100.00
65880;BME280;52661;51.364;6.054;2023-05-24T01:18:19;102003.41;;;10.60;100.00
65880;BME280;52661;51.364;6.054;2023-05-24T01:21:07;101998.06;;;10.63;100.00
65880;BME280;52661;51.364;6.054;2023-05-24T01:29:28;102003.66;;;10.35;100.00
65880;BME280;52661;51.364;6.054;2023-05-24T01:31:54;101989.78;;;10.21;100.00
65880;BME280;52661;51.364;6.054;2023-05-24T01:34:19;101995.25;;;10.41;100.00
65880;BME280;52661;51.364;6.054;2023-05-24T01:36:45;101994.53;;;10.44;100.00
65880;BME280;52661;51.364;6.054;2023-05-24T01:39:11;101988.13;;;10.17;100.00
65880;BME280;52661;51.364;6.054;2023-05-24T01:44:50;101987.28;;;9.97;100.00
65880;BME280;52661;51.364;6.054;2023-05-24T01:47:24;101988.53;;;9.84;100.00
65880;BME280;52661;51.364;6.054;2023-05-24T01:50:17;101988.44;;;9.80;100.00
65880;BME280;52661;51.364;6.054;2023-05-24T01:52:45;101981.72;;;9.90;100.00
65880;BME280;52661;51.364;6.054;2023-05-24T01:55:16;101985.53;;;9.89;100.00
65880;BME280;52661;51.364;6.054;2023-05-24T01:57:43;101986.69;;;9.88;100.00
65880;BME280;52661;51.364;6.054;2023-05-24T02:00:13;101985.94;;;9.56;100.00
65880;BME280;52661;51.364;6.054;2023-05-24T02:02:40;101987.75;;;9.68;100.00
65880;BME280;52661;51.364;6.054;2023-05-24T02:05:05;101994.59;;;9.62;100.00
65880;BME280;52661;51.364;6.054;2023-05-24T02:07:31;101988.03;;;9.63;100.00
65880;BME280;52661;51.364;6.054;2023-05-24T02:09:56;101980.50;;;9.40;100.00
65880;BME280;52661;51.364;6.054;2023-05-24T02:12:22;101973.78;;;9.34;100.00
65880;BME280;52661;51.364;6.054;2023-05-24T02:14:47;101976.38;;;9.31;100.00
65880;BME280;52661;51.364;6.054;2023-05-24T02:17:15;101970.28;;;9.18;100.00
65880;BME280;52661;51.364;6.054;2023-05-24T02:19:42;101979.59;;;9.05;100.00
65880;BME280;52661;51.364;6.054;2023-05-24T02:22:07;101981.78;;;9.15;100.00
65880;BME280;52661;51.364;6.054;2023-05-24T02:24:32;101982.78;;;9.38;100.00
65880;BME280;52661;51.364;6.054;2023-05-24T02:26:58;101981.28;;;9.57;100.00
65880;BME280;52661;51.364;6.054;2023-05-24T02:29:23;101985.75;;;9.65;100.00
65880;BME280;52661;51.364;6.054;2023-05-24T02:31:49;101982.72;;;9.51;100.00
65880;BME280;52661;51.364;6.054;2023-05-24T02:34:20;101973.16;;;9.57;100.00
65880;BME280;52661;51.364;6.054;2023-05-24T02:36:47;101985.59;;;9.58;100.00
65880;BME280;52661;51.364;6.054;2023-05-24T02:39:13;101980.31;;;9.33;100.00
65880;BME280;52661;51.364;6.054;2023-05-24T02:41:38;101990.22;;;9.26;100.00
65880;BME280;52661;51.364;6.054;2023-05-24T02:44:04;101982.25;;;9.17;100.00
65880;BME280;52661;51.364;6.054;2023-05-24T02:46:29;101982.00;;;9.22;100.00
65880;BME280;52661;51.364;6.054;2023-05-24T02:48:54;101990.13;;;9.22;100.00
65880;BME280;52661;51.364;6.054;2023-05-24T02:51:20;101986.34;;;9.27;100.00
65880;BME280;52661;51.364;6.054;2023-05-24T02:53:45;101983.22;;;9.40;100.00
65880;BME280;52661;51.364;6.054;2023-05-24T02:56:11;101984.19;;;9.64;100.00
65880;BME280;52661;51.364;6.054;2023-05-24T02:58:38;101985.25;;;9.44;100.00
65880;BME280;52661;51.364;6.054;2023-05-24T03:01:06;101990.28;;;9.45;100.00
65880;BME280;52661;51.364;6.054;2023-05-24T03:03:31;101988.13;;;9.51;100.00
65880;BME280;52661;51.364;6.054;2023-05-24T03:05:57;101985.03;;;9.52;100.00
65880;BME280;52661;51.364;6.054;2023-05-24T03:08:22;101986.47;;;9.46;100.00
65880;BME280;52661;51.364;6.054;2023-05-24T03:10:47;101985.22;;;9.59;100.00
65880;BME280;52661;51.364;6.054;2023-05-24T03:13:12;101986.88;;;9.48;100.00
65880;BME280;52661;51.364;6.054;2023-05-24T03:15:38;101984.78;;;9.42;100.00
65880;BME280;52661;51.364;6.054;2023-05-24T03:18:03;101993.59;;;9.23;100.00
65880;BME280;52661;51.364;6.054;2023-05-24T03:20:28;101993.34;;;9.28;100.00
65880;BME280;52661;51.364;6.054;2023-05-24T03:22:55;101992.66;;;9.31;100.00
65880;BME280;52661;51.364;6.054;2023-05-24T03:25:20;101986.81;;;9.29;100.00
65880;BME280;52661;51.364;6.054;2023-05-24T03:27:45;101993.34;;;9.28;100.00
65880;BME280;52661;51.364;6.054;2023-05-24T03:30:11;101990.19;;;9.10;100.00
65880;BME280;52661;51.364;6.054;2023-05-24T03:32:36;101983.38;;;9.01;100.00
65880;BME280;52661;51.364;6.054;2023-05-24T03:35:02;101986.69;;;9.10;100.00
65880;BME280;52661;51.364;6.054;2023-05-24T03:37:27;101983.25;;;8.97;100.00
65880;BME280;52661;51.364;6.054;2023-05-24T03:39:53;101976.59;;;8.95;100.00
65880;BME280;52661;51.364;6.054;2023-05-24T03:42:18;101990.25;;;8.70;100.00
65880;BME280;52661;51.364;6.054;2023-05-24T03:44:43;101982.75;;;8.79;100.00
65880;BME280;52661;51.364;6.054;2023-05-24T03:47:09;101996.94;;;8.88;100.00
65880;BME280;52661;51.364;6.054;2023-05-24T03:49:34;101997.03;;;8.92;100.00
65880;BME280;52661;51.364;6.054;2023-05-24T03:52:00;101996.16;;;8.88;100.00
65880;BME280;52661;51.364;6.054;2023-05-24T03:54:25;101998.34;;;8.82;100.00
65880;BME280;52661;51.364;6.054;2023-05-24T03:56:51;101995.66;;;8.70;100.00
65880;BME280;52661;51.364;6.054;2023-05-24T03:59:17;101994.25;;;8.88;100.00
65880;BME280;52661;51.364;6.054;2023-05-24T04:01:43;101991.41;;;9.13;100.00
65880;BME280;52661;51.364;6.054;2023-05-24T04:04:08;101998.69;;;9.24;100.00
65880;BME280;52661;51.364;6.054;2023-05-24T04:06:33;101999.69;;;8.76;100.00
65880;BME280;52661;51.364;6.054;2023-05-24T04:09:01;102002.41;;;9.04;100.00
65880;BME280;52661;51.364;6.054;2023-05-24T04:11:29;101995.06;;;9.05;100.00
65880;BME280;52661;51.364;6.054;2023-05-24T04:13:56;101994.47;;;9.11;100.00
65880;BME280;52661;51.364;6.054;2023-05-24T04:16:22;102000.31;;;9.13;100.00
65880;BME280;52661;51.364;6.054;2023-05-24T04:18:50;101993.88;;;8.90;100.00
65880;BME280;52661;51.364;6.054;2023-05-24T04:21:16;101994.94;;;8.85;100.00
65880;BME280;52661;51.364;6.054;2023-05-24T04:23:41;101994.56;;;8.87;100.00
65880;BME280;52661;51.364;6.054;2023-05-24T04:26:06;101992.66;;;8.87;100.00
65880;BME280;52661;51.364;6.054;2023-05-24T04:28:34;101983.56;;;8.80;100.00
65880;BME280;52661;51.364;6.054;2023-05-24T04:31:00;101996.25;;;8.92;100.00
65880;BME280;52661;51.364;6.054;2023-05-24T04:33:26;101992.16;;;8.98;100.00
65880;BME280;52661;51.364;6.054;2023-05-24T04:35:52;101991.72;;;8.96;100.00
65880;BME280;52661;51.364;6.054;2023-05-24T04:38:17;101994.66;;;8.90;100.00
65880;BME280;52661;51.364;6.054;2023-05-24T04:40:44;101992.72;;;9.03;100.00
65880;BME280;52661;51.364;6.054;2023-05-24T04:43:10;101999.19;;;9.14;100.00
65880;BME280;52661;51.364;6.054;2023-05-24T04:45:36;101995.97;;;9.24;100.00
65880;BME280;52661;51.364;6.054;2023-05-24T04:48:02;101996.00;;;9.40;100.00
65880;BME280;52661;51.364;6.054;2023-05-24T04:50:28;101996.50;;;9.46;100.00
65880;BME280;52661;51.364;6.054;2023-05-24T04:52:53;102003.34;;;9.39;100.00
65880;BME280;52661;51.364;6.054;2023-05-24T04:55:18;102007.41;;;9.33;100.00
65880;BME280;52661;51.364;6.054;2023-05-24T04:57:44;102004.88;;;9.40;100.00
65880;BME280;52661;51.364;6.054;2023-05-24T05:00:09;101997.72;;;9.32;100.00
65880;BME280;52661;51.364;6.054;2023-05-24T05:02:35;101999.03;;;9.38;100.00
65880;BME280;52661;51.364;6.054;2023-05-24T05:05:00;101993.47;;;9.47;100.00
65880;BME280;52661;51.364;6.054;2023-05-24T05:07:26;102003.69;;;9.54;100.00
65880;BME280;52661;51.364;6.054;2023-05-24T05:09:51;102002.72;;;9.62;100.00
65880;BME280;52661;51.364;6.054;2023-05-24T05:12:16;102012.06;;;9.49;100.00
65880;BME280;52661;51.364;6.054;2023-05-24T05:14:42;102007.69;;;9.60;100.00
65880;BME280;52661;51.364;6.054;2023-05-24T05:17:07;102012.31;;;9.59;100.00
65880;BME280;52661;51.364;6.054;2023-05-24T05:19:33;102003.25;;;9.67;100.00
65880;BME280;52661;51.364;6.054;2023-05-24T05:21:58;102000.19;;;9.69;100.00
65880;BME280;52661;51.364;6.054;2023-05-24T05:24:23;102008.81;;;9.74;100.00
65880;BME280;52661;51.364;6.054;2023-05-24T05:26:49;102015.56;;;9.80;100.00
65880;BME280;52661;51.364;6.054;2023-05-24T05:29:14;102006.81;;;9.87;100.00
65880;BME280;52661;51.364;6.054;2023-05-24T05:31:40;102012.31;;;9.91;100.00
65880;BME280;52661;51.364;6.054;2023-05-24T05:34:05;102019.13;;;10.00;100.00
65880;BME280;52661;51.364;6.054;2023-05-24T05:36:34;102009.94;;;9.89;100.00
65880;BME280;52661;51.364;6.054;2023-05-24T05:39:05;102015.47;;;9.93;100.00
65880;BME280;52661;51.364;6.054;2023-05-24T05:41:30;102012.91;;;10.00;100.00
65880;BME280;52661;51.364;6.054;2023-05-24T05:43:55;102009.06;;;10.01;100.00
65880;BME280;52661;51.364;6.054;2023-05-24T05:46:21;102026.06;;;9.98;100.00
65880;BME280;52661;51.364;6.054;2023-05-24T05:48:46;102015.91;;;9.95;100.00
65880;BME280;52661;51.364;6.054;2023-05-24T05:51:12;102016.84;;;10.02;100.00
65880;BME280;52661;51.364;6.054;2023-05-24T05:53:37;102023.50;;;10.05;100.00
65880;BME280;52661;51.364;6.054;2023-05-24T05:56:02;102022.66;;;10.16;100.00
65880;BME280;52661;51.364;6.054;2023-05-24T05:58:28;102032.16;;;10.26;100.00
65880;BME280;52661;51.364;6.054;2023-05-24T06:00:53;102024.88;;;10.30;100.00
65880;BME280;52661;51.364;6.054;2023-05-24T06:03:18;102023.16;;;10.22;100.00
65880;BME280;52661;51.364;6.054;2023-05-24T06:05:44;102021.94;;;10.38;100.00
65880;BME280;52661;51.364;6.054;2023-05-24T06:08:09;102026.06;;;10.48;100.00
65880;BME280;52661;51.364;6.054;2023-05-24T06:10:35;102023.97;;;10.42;100.00
65880;BME280;52661;51.364;6.054;2023-05-24T06:13:01;102029.72;;;10.56;100.00
65880;BME280;52661;51.364;6.054;2023-05-24T06:15:27;102029.56;;;10.49;100.00
65880;BME280;52661;51.364;6.054;2023-05-24T06:17:52;102021.00;;;10.66;100.00
65880;BME280;52661;51.364;6.054;2023-05-24T06:20:19;102019.28;;;10.77;100.00
65880;BME280;52661;51.364;6.054;2023-05-24T06:22:44;102020.53;;;10.64;100.00
65880;BME280;52661;51.364;6.054;2023-05-24T06:25:10;102022.78;;;10.58;100.00
65880;BME280;52661;51.364;6.054;2023-05-24T06:27:38;102028.50;;;10.72;100.00
65880;BME280;52661;51.364;6.054;2023-05-24T06:30:05;102031.22;;;10.92;100.00
65880;BME280;52661;51.364;6.054;2023-05-24T06:32:30;102037.84;;;10.94;100.00
65880;BME280;52661;51.364;6.054;2023-05-24T06:34:56;102032.41;;;10.94;100.00
65880;BME280;52661;51.364;6.054;2023-05-24T06:37:21;102033.28;;;10.79;100.00
65880;BME280;52661;51.364;6.054;2023-05-24T06:39:49;102027.34;;;10.73;100.00
65880;BME280;52661;51.364;6.054;2023-05-24T06:42:15;102029.84;;;10.82;100.00
65880;BME280;52661;51.364;6.054;2023-05-24T06:44:40;102029.06;;;10.81;100.00
65880;BME280;52661;51.364;6.054;2023-05-24T06:47:05;102029.41;;;10.80;100.00
65880;BME280;52661;51.364;6.054;2023-05-24T06:49:31;102035.00;;;10.87;100.00
65880;BME280;52661;51.364;6.054;2023-05-24T06:51:56;102044.13;;;10.79;100.00
65880;BME280;52661;51.364;6.054;2023-05-24T06:54:22;102047.91;;;10.94;100.00
65880;BME280;52661;51.364;6.054;2023-05-24T06:56:47;102053.41;;;11.16;100.00
65880;BME280;52661;51.364;6.054;2023-05-24T06:59:12;102054.75;;;11.26;100.00
65880;BME280;52661;51.364;6.054;2023-05-24T07:01:38;102060.13;;;11.22;100.00
65880;BME280;52661;51.364;6.054;2023-05-24T07:04:04;102063.03;;;11.33;100.00
65880;BME280;52661;51.364;6.054;2023-05-24T07:06:30;102055.63;;;11.53;100.00
65880;BME280;52661;51.364;6.054;2023-05-24T07:08:57;102059.72;;;11.43;100.00
65880;BME280;52661;51.364;6.054;2023-05-24T07:11:23;102055.94;;;11.48;100.00
65880;BME280;52661;51.364;6.054;2023-05-24T07:13:49;102058.34;;;11.53;100.00
65880;BME280;52661;51.364;6.054;2023-05-24T07:16:14;102062.53;;;11.69;100.00
65880;BME280;52661;51.364;6.054;2023-05-24T07:18:40;102055.75;;;11.60;100.00
65880;BME280;52661;51.364;6.054;2023-05-24T07:21:05;102057.00;;;11.43;100.00
65880;BME280;52661;51.364;6.054;2023-05-24T07:23:31;102056.88;;;11.36;100.00
65880;BME280;52661;51.364;6.054;2023-05-24T07:25:56;102052.00;;;11.45;100.00
65880;BME280;52661;51.364;6.054;2023-05-24T07:28:21;102052.19;;;11.56;100.00
65880;BME280;52661;51.364;6.054;2023-05-24T07:30:47;102054.19;;;11.59;100.00
65880;BME280;52661;51.364;6.054;2023-05-24T07:33:12;102056.84;;;11.55;100.00
65880;BME280;52661;51.364;6.054;2023-05-24T07:35:38;102054.84;;;11.52;100.00
65880;BME280;52661;51.364;6.054;2023-05-24T07:38:03;102045.69;;;11.60;100.00
65880;BME280;52661;51.364;6.054;2023-05-24T07:40:29;102048.00;;;11.62;100.00
65880;BME280;52661;51.364;6.054;2023-05-24T07:42:54;102058.09;;;11.61;100.00
65880;BME280;52661;51.364;6.054;2023-05-24T07:45:20;102058.03;;;11.77;100.00
65880;BME280;52661;51.364;6.054;2023-05-24T07:47:45;102054.59;;;12.06;100.00
65880;BME280;52661;51.364;6.054;2023-05-24T07:50:10;102063.00;;;11.98;100.00
65880;BME280;52661;51.364;6.054;2023-05-24T07:52:36;102064.19;;;11.97;100.00
65880;BME280;52661;51.364;6.054;2023-05-24T07:55:03;102060.66;;;11.96;100.00
65880;BME280;52661;51.364;6.054;2023-05-24T07:57:28;102064.91;;;11.94;100.00
65880;BME280;52661;51.364;6.054;2023-05-24T07:59:54;102070.47;;;11.78;100.00
65880;BME280;52661;51.364;6.054;2023-05-24T08:02:19;102061.72;;;11.69;100.00
65880;BME280;52661;51.364;6.054;2023-05-24T08:04:45;102060.50;;;11.86;100.00
65880;BME280;52661;51.364;6.054;2023-05-24T08:07:10;102063.00;;;11.98;100.00
65880;BME280;52661;51.364;6.054;2023-05-24T08:09:36;102064.47;;;11.92;100.00
65880;BME280;52661;51.364;6.054;2023-05-24T08:12:05;102064.00;;;11.86;100.00
65880;BME280;52661;51.364;6.054;2023-05-24T08:14:31;102058.00;;;12.00;100.00
65880;BME280;52661;51.364;6.054;2023-05-24T08:16:56;102057.44;;;12.13;100.00
65880;BME280;52661;51.364;6.054;2023-05-24T08:19:22;102058.03;;;12.26;100.00
65880;BME280;52661;51.364;6.054;2023-05-24T08:21:48;102049.41;;;12.24;100.00
65880;BME280;52661;51.364;6.054;2023-05-24T08:24:13;102051.88;;;12.32;100.00
65880;BME280;52661;51.364;6.054;2023-05-24T08:26:39;102059.38;;;12.39;100.00
65880;BME280;52661;51.364;6.054;2023-05-24T08:29:04;102059.16;;;12.51;100.00
65880;BME280;52661;51.364;6.054;2023-05-24T08:31:30;102059.19;;;12.55;100.00
65880;BME280;52661;51.364;6.054;2023-05-24T08:33:57;102055.44;;;12.66;100.00
65880;BME280;52661;51.364;6.054;2023-05-24T08:36:23;102051.69;;;12.78;100.00
65880;BME280;52661;51.364;6.054;2023-05-24T08:38:48;102053.41;;;12.90;100.00
65880;BME280;52661;51.364;6.054;2023-05-24T08:41:13;102052.66;;;12.93;100.00
65880;BME280;52661;51.364;6.054;2023-05-24T08:43:40;102050.69;;;12.90;100.00
65880;BME280;52661;51.364;6.054;2023-05-24T08:46:06;102054.84;;;12.80;100.00
65880;BME280;52661;51.364;6.054;2023-05-24T08:48:33;102050.44;;;12.68;100.00
65880;BME280;52661;51.364;6.054;2023-05-24T08:51:05;102050.66;;;12.56;100.00
65880;BME280;52661;51.364;6.054;2023-05-24T08:53:33;102053.88;;;12.36;100.00
65880;BME280;52661;51.364;6.054;2023-05-24T08:56:00;102052.72;;;12.37;100.00
65880;BME280;52661;51.364;6.054;2023-05-24T08:58:28;102052.72;;;12.37;100.00
65880;BME280;52661;51.364;6.054;2023-05-24T09:00:54;102051.38;;;12.53;100.00
65880;BME280;52661;51.364;6.054;2023-05-24T09:03:21;102042.22;;;12.65;100.00
65880;BME280;52661;51.364;6.054;2023-05-24T09:05:47;102046.56;;;12.69;100.00
65880;BME280;52661;51.364;6.054;2023-05-24T09:08:12;102047.78;;;12.75;100.00
65880;BME280;52661;51.364;6.054;2023-05-24T09:10:42;102041.88;;;12.70;100.00
65880;BME280;52661;51.364;6.054;2023-05-24T09:13:08;102047.75;;;12.72;100.00
65880;BME280;52661;51.364;6.054;2023-05-24T09:15:35;102052.84;;;12.77;100.00
65880;BME280;52661;51.364;6.054;2023-05-24T09:18:00;102046.41;;;12.92;100.00
65880;BME280;52661;51.364;6.054;2023-05-24T09:20:26;102040.66;;;12.97;100.00
65880;BME280;52661;51.364;6.054;2023-05-24T09:22:51;102043.78;;;12.99;100.00
65880;BME280;52661;51.364;6.054;2023-05-24T09:25:19;102037.50;;;12.95;100.00
65880;BME280;52661;51.364;6.054;2023-05-24T09:27:50;102031.72;;;13.00;100.00
65880;BME280;52661;51.364;6.054;2023-05-24T09:30:16;102033.75;;;13.07;100.00
65880;BME280;52661;51.364;6.054;2023-05-24T09:32:53;102033.13;;;13.20;100.00
65880;BME280;52661;51.364;6.054;2023-05-24T09:35:19;102027.00;;;13.27;100.00
65880;BME280;52661;51.364;6.054;2023-05-24T09:37:44;102035.16;;;13.27;100.00
65880;BME280;52661;51.364;6.054;2023-05-24T09:40:18;102028.09;;;13.22;100.00
65880;BME280;52661;51.364;6.054;2023-05-24T09:42:44;102026.59;;;13.28;100.00
65880;BME280;52661;51.364;6.054;2023-05-24T09:45:10;102033.72;;;13.40;99.96
65880;BME280;52661;51.364;6.054;2023-05-24T09:47:38;102037.66;;;13.46;99.64
65880;BME280;52661;51.364;6.054;2023-05-24T09:50:10;102042.69;;;13.41;100.00
65880;BME280;52661;51.364;6.054;2023-05-24T09:52:36;102032.16;;;13.39;100.00
65880;BME280;52661;51.364;6.054;2023-05-24T09:55:18;102023.59;;;13.41;99.49
65880;BME280;52661;51.364;6.054;2023-05-24T09:57:49;102019.72;;;13.42;99.17
65880;BME280;52661;51.364;6.054;2023-05-24T10:00:21;102019.81;;;13.52;100.00
65880;BME280;52661;51.364;6.054;2023-05-24T10:03:02;102012.88;;;13.62;100.00
65880;BME280;52661;51.364;6.054;2023-05-24T10:05:28;102012.16;;;13.72;100.00
65880;BME280;52661;51.364;6.054;2023-05-24T10:07:55;102015.66;;;13.69;99.77
65880;BME280;52661;51.364;6.054;2023-05-24T10:10:29;102018.25;;;13.51;98.44
65880;BME280;52661;51.364;6.054;2023-05-24T10:13:00;102031.78;;;13.41;100.00
65880;BME280;52661;51.364;6.054;2023-05-24T10:15:26;102016.22;;;13.41;100.00
65880;BME280;52661;51.364;6.054;2023-05-24T10:17:54;102023.97;;;13.39;100.00
65880;BME280;52661;51.364;6.054;2023-05-24T10:20:20;102025.19;;;13.42;100.00
65880;BME280;52661;51.364;6.054;2023-05-24T10:22:51;102023.94;;;13.36;100.00
65880;BME280;52661;51.364;6.054;2023-05-24T10:25:24;102026.69;;;13.39;100.00
65880;BME280;52661;51.364;6.054;2023-05-24T10:27:54;102026.66;;;13.36;100.00
65880;BME280;52661;51.364;6.054;2023-05-24T10:30:24;102029.41;;;13.39;100.00
65880;BME280;52661;51.364;6.054;2023-05-24T10:32:52;102032.56;;;13.41;99.56
65880;BME280;52661;51.364;6.054;2023-05-24T10:35:20;102025.16;;;13.38;100.00
65880;BME280;52661;51.364;6.054;2023-05-24T10:37:47;102031.75;;;13.37;100.00
65880;BME280;52661;51.364;6.054;2023-05-24T10:40:21;102031.31;;;13.35;100.00
65880;BME280;52661;51.364;6.054;2023-05-24T10:42:50;102024.72;;;13.36;100.00
65880;BME280;52661;51.364;6.054;2023-05-24T10:45:29;102032.91;;;13.36;100.00
65880;BME280;52661;51.364;6.054;2023-05-24T10:48:07;102027.06;;;13.34;100.00
65880;BME280;52661;51.364;6.054;2023-05-24T10:50:34;102031.28;;;13.31;100.00
65880;BME280;52661;51.364;6.054;2023-05-24T10:53:17;102026.28;;;13.37;100.00
65880;BME280;52661;51.364;6.054;2023-05-24T10:55:59;102021.66;;;13.41;100.00
65880;BME280;52661;51.364;6.054;2023-05-24T10:58:57;102025.94;;;13.42;100.00
65880;BME280;52661;51.364;6.054;2023-05-24T11:01:30;102017.34;;;13.40;98.46
65880;BME280;52661;51.364;6.054;2023-05-24T11:09:18;102010.94;;;13.62;98.96
65880;BME280;52661;51.364;6.054;2023-05-24T11:11:47;102009.38;;;13.65;99.04
65880;BME280;52661;51.364;6.054;2023-05-24T11:14:17;102016.44;;;13.69;100.00
65880;BME280;52661;51.364;6.054;2023-05-24T11:16:47;102021.16;;;13.72;98.40
65880;BME280;52661;51.364;6.054;2023-05-24T11:19:16;102018.06;;;13.74;96.52
65880;BME280;52661;51.364;6.054;2023-05-24T11:21:46;102012.31;;;13.90;98.72
65880;BME280;52661;51.364;6.054;2023-05-24T11:24:15;102016.66;;;13.98;97.14
65880;BME280;52661;51.364;6.054;2023-05-24T11:26:41;102018.66;;;14.08;95.33
65880;BME280;52661;51.364;6.054;2023-05-24T11:29:06;102013.22;;;14.11;93.58
65880;BME280;52661;51.364;6.054;2023-05-24T11:31:31;102006.59;;;14.12;93.22
65880;BME280;52661;51.364;6.054;2023-05-24T11:33:59;102011.75;;;14.21;96.72
65880;BME280;52661;51.364;6.054;2023-05-24T11:36:24;102012.91;;;14.23;91.63
65880;BME280;52661;51.364;6.054;2023-05-24T11:38:52;102007.09;;;14.25;91.51
65880;BME280;52661;51.364;6.054;2023-05-24T11:41:18;102019.47;;;14.12;93.05
65880;BME280;52661;51.364;6.054;2023-05-24T11:43:44;102017.91;;;14.11;96.04
65880;BME280;52661;51.364;6.054;2023-05-24T11:46:09;102011.25;;;14.05;94.98
65880;BME280;52661;51.364;6.054;2023-05-24T11:48:35;102017.88;;;14.07;94.27
65880;BME280;52661;51.364;6.054;2023-05-24T11:51:00;102014.81;;;14.16;96.71
65880;BME280;52661;51.364;6.054;2023-05-24T11:53:28;102017.59;;;14.23;96.48
65880;BME280;52661;51.364;6.054;2023-05-24T11:55:54;102014.06;;;14.22;95.95
65880;BME280;52661;51.364;6.054;2023-05-24T12:00:46;102002.94;;;14.49;91.74
65880;BME280;52661;51.364;6.054;2023-05-24T12:03:12;101997.94;;;14.68;92.15
65880;BME280;52661;51.364;6.054;2023-05-24T12:05:37;101996.09;;;15.01;92.57
65880;BME280;52661;51.364;6.054;2023-05-24T12:08:05;101999.66;;;15.30;92.05
65880;BME280;52661;51.364;6.054;2023-05-24T12:10:35;101998.09;;;15.39;90.63
65880;BME280;52661;51.364;6.054;2023-05-24T12:13:05;101992.59;;;15.28;92.47
65880;BME280;52661;51.364;6.054;2023-05-24T12:15:31;101992.97;;;15.23;93.17
65880;BME280;52661;51.364;6.054;2023-05-24T12:17:57;101984.00;;;15.19;96.39
65880;BME280;52661;51.364;6.054;2023-05-24T12:20:23;101985.16;;;15.11;92.23
65880;BME280;52661;51.364;6.054;2023-05-24T12:22:52;101988.63;;;14.91;91.00
65880;BME280;52661;51.364;6.054;2023-05-24T12:25:18;101985.88;;;14.84;90.64
65880;BME280;52661;51.364;6.054;2023-05-24T12:27:51;101976.16;;;14.90;92.77
65880;BME280;52661;51.364;6.054;2023-05-24T12:30:21;101978.19;;;15.63;93.65
65880;BME280;52661;51.364;6.054;2023-05-24T12:32:47;101984.75;;;16.08;89.27
65880;BME280;52661;51.364;6.054;2023-05-24T12:35:13;101980.91;;;15.74;87.16
65880;BME280;52661;51.364;6.054;2023-05-24T12:37:41;101978.94;;;15.46;87.91
65880;BME280;52661;51.364;6.054;2023-05-24T12:40:17;101973.84;;;15.48;87.74
65880;BME280;52661;51.364;6.054;2023-05-24T12:42:48;101975.03;;;15.44;87.45
65880;BME280;52661;51.364;6.054;2023-05-24T12:45:16;101970.34;;;15.44;90.04
65880;BME280;52661;51.364;6.054;2023-05-24T12:47:49;101974.63;;;15.13;88.68
65880;BME280;52661;51.364;6.054;2023-05-24T12:50:16;101974.63;;;15.20;91.35
65880;BME280;52661;51.364;6.054;2023-05-24T12:52:42;101976.56;;;15.06;89.54
65880;BME280;52661;51.364;6.054;2023-05-24T12:55:10;101969.91;;;15.07;92.86
65880;BME280;52661;51.364;6.054;2023-05-24T12:57:36;101974.97;;;15.05;89.98
65880;BME280;52661;51.364;6.054;2023-05-24T13:00:01;101973.81;;;15.06;91.49
65880;BME280;52661;51.364;6.054;2023-05-24T13:02:27;101971.09;;;15.13;94.12
65880;BME280;52661;51.364;6.054;2023-05-24T13:04:52;101976.16;;;15.00;88.92
65880;BME280;52661;51.364;6.054;2023-05-24T13:07:17;101972.22;;;14.94;90.30